sensor_id;sensor_type;location;lat;lon;timestamp;temperature;humidity
71084;DHT22;58741;52.672;13.548;2022-08-30T00:01:30;13.80;91.40
71084;DHT22;58741;52.672;13.548;2022-08-30T00:03:56;13.80;91.50
71084;DHT22;58741;52.672;13.548;2022-08-30T00:06:24;13.80;91.60
71084;DHT22;58741;52.672;13.548;2022-08-30T00:08:50;13.70;91.50
71084;DHT22;58741;52.672;13.548;2022-08-30T00:11:19;13.70;91.50
71084;DHT22;58741;52.672;13.548;2022-08-30T00:13:46;13.70;91.50
71084;DHT22;58741;52.672;13.548;2022-08-30T00:16:14;13.70;91.60
71084;DHT22;58741;52.672;13.548;2022-08-30T00:18:40;13.60;91.60
71084;DHT22;58741;52.672;13.548;2022-08-30T00:21:06;13.60;91.90
71084;DHT22;58741;52.672;13.548;2022-08-30T00:23:31;13.60;92.00
71084;DHT22;58741;52.672;13.548;2022-08-30T00:25:58;13.60;92.00
71084;DHT22;58741;52.672;13.548;2022-08-30T00:28:23;13.60;92.20
71084;DHT22;58741;52.672;13.548;2022-08-30T00:30:49;13.60;92.10
71084;DHT22;58741;52.672;13.548;2022-08-30T00:33:15;13.60;92.00
71084;DHT22;58741;52.672;13.548;2022-08-30T00:35:41;13.60;92.00
71084;DHT22;58741;52.672;13.548;2022-08-30T00:38:07;13.50;92.10
71084;DHT22;58741;52.672;13.548;2022-08-30T00:40:33;13.50;92.20
71084;DHT22;58741;52.672;13.548;2022-08-30T00:42:59;13.50;92.00
71084;DHT22;58741;52.672;13.548;2022-08-30T00:45:32;13.50;91.90
71084;DHT22;58741;52.672;13.548;2022-08-30T00:47:58;13.50;91.90
71084;DHT22;58741;52.672;13.548;2022-08-30T00:50:28;13.50;91.90
71084;DHT22;58741;52.672;13.548;2022-08-30T00:52:57;13.50;91.90
71084;DHT22;58741;52.672;13.548;2022-08-30T00:55:24;13.40;91.90
71084;DHT22;58741;52.672;13.548;2022-08-30T00:57:54;13.40;91.90
71084;DHT22;58741;52.672;13.548;2022-08-30T01:00:20;13.40;91.80
71084;DHT22;58741;52.672;13.548;2022-08-30T01:02:46;13.40;91.90
71084;DHT22;58741;52.672;13.548;2022-08-30T01:05:13;13.40;92.00
71084;DHT22;58741;52.672;13.548;2022-08-30T01:07:40;13.30;92.10
71084;DHT22;58741;52.672;13.548;2022-08-30T01:10:08;13.40;92.00
71084;DHT22;58741;52.672;13.548;2022-08-30T01:12:35;13.30;92.10
71084;DHT22;58741;52.672;13.548;2022-08-30T01:15:01;13.30;92.30
71084;DHT22;58741;52.672;13.548;2022-08-30T01:17:27;13.30;92.30
71084;DHT22;58741;52.672;13.548;2022-08-30T01:19:57;13.30;92.30
71084;DHT22;58741;52.672;13.548;2022-08-30T01:25:18;13.30;92.20
71084;DHT22;58741;52.672;13.548;2022-08-30T01:27:59;13.30;92.30
71084;DHT22;58741;52.672;13.548;2022-08-30T01:30:27;13.30;92.30
71084;DHT22;58741;52.672;13.548;2022-08-30T01:32:57;13.20;92.30
71084;DHT22;58741;52.672;13.548;2022-08-30T01:35:23;13.20;92.20
71084;DHT22;58741;52.672;13.548;2022-08-30T01:37:48;13.20;92.20
71084;DHT22;58741;52.672;13.548;2022-08-30T01:40:17;13.20;92.30
71084;DHT22;58741;52.672;13.548;2022-08-30T01:42:44;13.20;92.30
71084;DHT22;58741;52.672;13.548;2022-08-30T01:45:10;13.20;92.30
71084;DHT22;58741;52.672;13.548;2022-08-30T01:47:36;13.10;92.20
71084;DHT22;58741;52.672;13.548;2022-08-30T01:50:02;13.10;92.20
71084;DHT22;58741;52.672;13.548;2022-08-30T01:52:28;13.10;92.30
71084;DHT22;58741;52.672;13.548;2022-08-30T01:54:54;13.10;92.50
71084;DHT22;58741;52.672;13.548;2022-08-30T01:57:21;13.10;92.40
71084;DHT22;58741;52.672;13.548;2022-08-30T01:59:47;13.10;92.50
71084;DHT22;58741;52.672;13.548;2022-08-30T02:02:16;13.00;92.50
71084;DHT22;58741;52.672;13.548;2022-08-30T02:04:43;13.00;92.70
71084;DHT22;58741;52.672;13.548;2022-08-30T02:07:08;13.00;92.50
71084;DHT22;58741;52.672;13.548;2022-08-30T02:09:34;13.00;92.60
71084;DHT22;58741;52.672;13.548;2022-08-30T02:12:00;13.00;92.50
71084;DHT22;58741;52.672;13.548;2022-08-30T02:14:25;13.00;92.50
71084;DHT22;58741;52.672;13.548;2022-08-30T02:16:51;13.00;92.50
71084;DHT22;58741;52.672;13.548;2022-08-30T02:19:17;12.90;92.50
71084;DHT22;58741;52.672;13.548;2022-08-30T02:21:42;12.90;92.50
71084;DHT22;58741;52.672;13.548;2022-08-30T02:24:08;12.90;92.60
71084;DHT22;58741;52.672;13.548;2022-08-30T02:26:34;12.90;92.70
71084;DHT22;58741;52.672;13.548;2022-08-30T02:29:01;12.90;92.70
71084;DHT22;58741;52.672;13.548;2022-08-30T02:31:29;12.90;93.00
71084;DHT22;58741;52.672;13.548;2022-08-30T02:33:55;12.90;93.00
71084;DHT22;58741;52.672;13.548;2022-08-30T02:36:21;12.90;93.00
71084;DHT22;58741;52.672;13.548;2022-08-30T02:38:47;12.90;92.80
71084;DHT22;58741;52.672;13.548;2022-08-30T02:41:13;12.90;93.10
71084;DHT22;58741;52.672;13.548;2022-08-30T02:43:38;12.90;93.40
71084;DHT22;58741;52.672;13.548;2022-08-30T02:46:04;12.90;93.30
71084;DHT22;58741;52.672;13.548;2022-08-30T02:48:30;12.90;93.10
71084;DHT22;58741;52.672;13.548;2022-08-30T02:50:55;12.90;93.10
71084;DHT22;58741;52.672;13.548;2022-08-30T02:53:22;12.90;93.00
71084;DHT22;58741;52.672;13.548;2022-08-30T02:55:48;12.90;93.30
71084;DHT22;58741;52.672;13.548;2022-08-30T02:58:14;12.90;93.60
71084;DHT22;58741;52.672;13.548;2022-08-30T03:00:40;12.90;93.30
71084;DHT22;58741;52.672;13.548;2022-08-30T03:03:06;12.90;93.50
71084;DHT22;58741;52.672;13.548;2022-08-30T03:05:32;12.90;93.60
71084;DHT22;58741;52.672;13.548;2022-08-30T03:07:58;12.90;93.60
71084;DHT22;58741;52.672;13.548;2022-08-30T03:10:26;12.90;93.40
71084;DHT22;58741;52.672;13.548;2022-08-30T03:12:55;13.00;93.50
71084;DHT22;58741;52.672;13.548;2022-08-30T03:15:21;13.00;93.50
71084;DHT22;58741;52.672;13.548;2022-08-30T03:17:50;13.00;93.50
71084;DHT22;58741;52.672;13.548;2022-08-30T03:20:15;13.00;93.60
71084;DHT22;58741;52.672;13.548;2022-08-30T03:22:41;13.10;93.60
71084;DHT22;58741;52.672;13.548;2022-08-30T03:25:07;13.10;93.50
71084;DHT22;58741;52.672;13.548;2022-08-30T03:27:33;13.20;93.50
71084;DHT22;58741;52.672;13.548;2022-08-30T03:29:58;13.10;93.60
71084;DHT22;58741;52.672;13.548;2022-08-30T03:32:24;13.20;94.10
71084;DHT22;58741;52.672;13.548;2022-08-30T03:34:49;13.20;94.50
71084;DHT22;58741;52.672;13.548;2022-08-30T03:37:15;13.20;94.30
71084;DHT22;58741;52.672;13.548;2022-08-30T03:39:41;13.20;94.00
71084;DHT22;58741;52.672;13.548;2022-08-30T03:42:09;13.20;94.50
71084;DHT22;58741;52.672;13.548;2022-08-30T03:44:35;13.30;94.30
71084;DHT22;58741;52.672;13.548;2022-08-30T03:47:01;13.30;94.80
71084;DHT22;58741;52.672;13.548;2022-08-30T03:49:27;13.40;94.50
71084;DHT22;58741;52.672;13.548;2022-08-30T03:51:53;13.40;94.50
71084;DHT22;58741;52.672;13.548;2022-08-30T03:54:18;13.40;94.20
71084;DHT22;58741;52.672;13.548;2022-08-30T03:56:43;13.40;94.30
71084;DHT22;58741;52.672;13.548;2022-08-30T03:59:09;13.40;94.50
71084;DHT22;58741;52.672;13.548;2022-08-30T04:01:34;13.40;94.50
71084;DHT22;58741;52.672;13.548;2022-08-30T04:04:00;13.50;94.60
71084;DHT22;58741;52.672;13.548;2022-08-30T04:06:26;13.50;94.60
71084;DHT22;58741;52.672;13.548;2022-08-30T04:08:52;13.50;94.80
71084;DHT22;58741;52.672;13.548;2022-08-30T04:11:18;13.60;94.80
71084;DHT22;58741;52.672;13.548;2022-08-30T04:13:45;13.60;94.70
71084;DHT22;58741;52.672;13.548;2022-08-30T04:16:11;13.60;94.70
71084;DHT22;58741;52.672;13.548;2022-08-30T04:18:37;13.60;95.00
71084;DHT22;58741;52.672;13.548;2022-08-30T04:21:03;13.70;95.00
71084;DHT22;58741;52.672;13.548;2022-08-30T04:23:29;13.70;94.80
71084;DHT22;58741;52.672;13.548;2022-08-30T04:25:55;13.70;95.10
71084;DHT22;58741;52.672;13.548;2022-08-30T04:28:21;13.70;95.20
71084;DHT22;58741;52.672;13.548;2022-08-30T04:30:47;13.80;95.10
71084;DHT22;58741;52.672;13.548;2022-08-30T04:33:14;13.80;95.00
71084;DHT22;58741;52.672;13.548;2022-08-30T04:35:42;13.80;94.80
71084;DHT22;58741;52.672;13.548;2022-08-30T04:38:08;13.80;94.70
71084;DHT22;58741;52.672;13.548;2022-08-30T04:40:34;13.80;94.70
71084;DHT22;58741;52.672;13.548;2022-08-30T04:43:00;13.90;94.70
71084;DHT22;58741;52.672;13.548;2022-08-30T04:45:26;13.90;95.00
71084;DHT22;58741;52.672;13.548;2022-08-30T04:47:51;13.90;95.10
71084;DHT22;58741;52.672;13.548;2022-08-30T04:50:18;13.90;95.10
71084;DHT22;58741;52.672;13.548;2022-08-30T04:52:44;14.00;95.10
71084;DHT22;58741;52.672;13.548;2022-08-30T04:55:11;14.00;95.40
71084;DHT22;58741;52.672;13.548;2022-08-30T04:57:38;14.10;95.70
71084;DHT22;58741;52.672;13.548;2022-08-30T05:00:07;14.00;95.70
71084;DHT22;58741;52.672;13.548;2022-08-30T05:02:32;14.10;95.70
71084;DHT22;58741;52.672;13.548;2022-08-30T05:04:58;14.20;95.70
71084;DHT22;58741;52.672;13.548;2022-08-30T05:07:42;14.20;95.80
71084;DHT22;58741;52.672;13.548;2022-08-30T05:10:08;14.20;95.90
71084;DHT22;58741;52.672;13.548;2022-08-30T05:12:34;14.20;96.00
71084;DHT22;58741;52.672;13.548;2022-08-30T05:14:59;14.30;96.00
71084;DHT22;58741;52.672;13.548;2022-08-30T05:17:25;14.30;96.10
71084;DHT22;58741;52.672;13.548;2022-08-30T05:19:50;14.40;96.30
71084;DHT22;58741;52.672;13.548;2022-08-30T05:22:16;14.40;96.50
71084;DHT22;58741;52.672;13.548;2022-08-30T05:24:41;14.50;96.50
71084;DHT22;58741;52.672;13.548;2022-08-30T05:27:07;14.50;96.80
71084;DHT22;58741;52.672;13.548;2022-08-30T05:29:32;14.50;96.50
71084;DHT22;58741;52.672;13.548;2022-08-30T05:31:58;14.60;96.70
71084;DHT22;58741;52.672;13.548;2022-08-30T05:34:24;14.60;96.80
71084;DHT22;58741;52.672;13.548;2022-08-30T05:36:50;14.70;96.90
71084;DHT22;58741;52.672;13.548;2022-08-30T05:39:16;14.70;97.20
71084;DHT22;58741;52.672;13.548;2022-08-30T05:41:41;14.80;97.30
71084;DHT22;58741;52.672;13.548;2022-08-30T05:44:08;14.90;97.40
71084;DHT22;58741;52.672;13.548;2022-08-30T05:46:35;14.90;97.60
71084;DHT22;58741;52.672;13.548;2022-08-30T05:49:03;15.00;97.60
71084;DHT22;58741;52.672;13.548;2022-08-30T05:51:30;15.00;97.60
71084;DHT22;58741;52.672;13.548;2022-08-30T05:53:58;15.10;97.70
71084;DHT22;58741;52.672;13.548;2022-08-30T05:56:27;15.10;97.80
71084;DHT22;58741;52.672;13.548;2022-08-30T05:58:54;15.20;97.80
71084;DHT22;58741;52.672;13.548;2022-08-30T06:01:26;15.30;97.90
71084;DHT22;58741;52.672;13.548;2022-08-30T06:03:53;15.40;98.10
71084;DHT22;58741;52.672;13.548;2022-08-30T06:06:19;15.40;98.20
71084;DHT22;58741;52.672;13.548;2022-08-30T06:08:44;15.50;98.10
71084;DHT22;58741;52.672;13.548;2022-08-30T06:11:12;15.50;98.10
71084;DHT22;58741;52.672;13.548;2022-08-30T06:13:39;15.60;98.00
71084;DHT22;58741;52.672;13.548;2022-08-30T06:16:06;15.70;98.20
71084;DHT22;58741;52.672;13.548;2022-08-30T06:18:32;15.70;98.00
71084;DHT22;58741;52.672;13.548;2022-08-30T06:20:57;15.80;98.10
71084;DHT22;58741;52.672;13.548;2022-08-30T06:23:23;15.90;98.00
71084;DHT22;58741;52.672;13.548;2022-08-30T06:25:49;15.90;98.10
71084;DHT22;58741;52.672;13.548;2022-08-30T06:28:14;16.00;97.90
71084;DHT22;58741;52.672;13.548;2022-08-30T06:30:41;16.00;98.00
71084;DHT22;58741;52.672;13.548;2022-08-30T06:33:07;16.10;97.70
71084;DHT22;58741;52.672;13.548;2022-08-30T06:35:34;16.10;97.50
71084;DHT22;58741;52.672;13.548;2022-08-30T06:38:00;16.20;97.50
71084;DHT22;58741;52.672;13.548;2022-08-30T06:40:25;16.20;97.50
71084;DHT22;58741;52.672;13.548;2022-08-30T06:42:51;16.30;97.30
71084;DHT22;58741;52.672;13.548;2022-08-30T06:45:17;16.30;97.30
71084;DHT22;58741;52.672;13.548;2022-08-30T06:47:43;16.40;97.50
71084;DHT22;58741;52.672;13.548;2022-08-30T06:50:10;16.40;97.20
71084;DHT22;58741;52.672;13.548;2022-08-30T06:52:37;16.50;97.00
71084;DHT22;58741;52.672;13.548;2022-08-30T06:55:02;16.50;97.00
71084;DHT22;58741;52.672;13.548;2022-08-30T06:57:28;16.60;97.20
71084;DHT22;58741;52.672;13.548;2022-08-30T06:59:55;16.60;96.60
71084;DHT22;58741;52.672;13.548;2022-08-30T07:02:21;16.70;96.50
71084;DHT22;58741;52.672;13.548;2022-08-30T07:04:47;16.70;96.40
71084;DHT22;58741;52.672;13.548;2022-08-30T07:07:13;16.80;96.30
71084;DHT22;58741;52.672;13.548;2022-08-30T07:09:39;16.80;96.40
71084;DHT22;58741;52.672;13.548;2022-08-30T07:12:11;16.90;96.10
71084;DHT22;58741;52.672;13.548;2022-08-30T07:14:37;16.90;96.00
71084;DHT22;58741;52.672;13.548;2022-08-30T07:17:03;16.90;95.70
71084;DHT22;58741;52.672;13.548;2022-08-30T07:19:49;17.00;95.60
71084;DHT22;58741;52.672;13.548;2022-08-30T07:22:14;17.00;95.40
71084;DHT22;58741;52.672;13.548;2022-08-30T07:24:40;17.10;95.40
71084;DHT22;58741;52.672;13.548;2022-08-30T07:27:05;17.10;95.80
71084;DHT22;58741;52.672;13.548;2022-08-30T07:29:31;17.20;95.30
71084;DHT22;58741;52.672;13.548;2022-08-30T07:31:56;17.20;95.20
71084;DHT22;58741;52.672;13.548;2022-08-30T07:34:22;17.20;95.10
71084;DHT22;58741;52.672;13.548;2022-08-30T07:36:47;17.20;95.10
71084;DHT22;58741;52.672;13.548;2022-08-30T07:39:12;17.30;95.10
71084;DHT22;58741;52.672;13.548;2022-08-30T07:41:38;17.30;94.90
71084;DHT22;58741;52.672;13.548;2022-08-30T07:44:05;17.40;94.80
71084;DHT22;58741;52.672;13.548;2022-08-30T07:46:31;17.40;94.70
71084;DHT22;58741;52.672;13.548;2022-08-30T07:48:58;17.50;94.40
71084;DHT22;58741;52.672;13.548;2022-08-30T07:51:26;17.50;94.20
71084;DHT22;58741;52.672;13.548;2022-08-30T07:53:53;17.50;94.10
71084;DHT22;58741;52.672;13.548;2022-08-30T07:56:19;17.50;93.80
71084;DHT22;58741;52.672;13.548;2022-08-30T07:58:45;17.60;93.80
71084;DHT22;58741;52.672;13.548;2022-08-30T08:01:11;17.60;93.70
71084;DHT22;58741;52.672;13.548;2022-08-30T08:03:38;17.60;93.60
71084;DHT22;58741;52.672;13.548;2022-08-30T08:06:09;17.60;93.50
71084;DHT22;58741;52.672;13.548;2022-08-30T08:08:36;17.60;93.40
71084;DHT22;58741;52.672;13.548;2022-08-30T08:11:11;17.70;93.40
71084;DHT22;58741;52.672;13.548;2022-08-30T08:13:39;17.70;93.40
71084;DHT22;58741;52.672;13.548;2022-08-30T08:16:04;17.70;93.20
71084;DHT22;58741;52.672;13.548;2022-08-30T08:18:30;17.70;93.00
71084;DHT22;58741;52.672;13.548;2022-08-30T08:20:56;17.70;93.00
71084;DHT22;58741;52.672;13.548;2022-08-30T08:23:22;17.60;93.10
71084;DHT22;58741;52.672;13.548;2022-08-30T08:25:48;17.70;93.00
71084;DHT22;58741;52.672;13.548;2022-08-30T08:28:13;17.70;93.00
71084;DHT22;58741;52.672;13.548;2022-08-30T08:30:39;17.60;92.80
71084;DHT22;58741;52.672;13.548;2022-08-30T08:33:05;17.70;92.90
71084;DHT22;58741;52.672;13.548;2022-08-30T08:35:31;17.70;92.90
71084;DHT22;58741;52.672;13.548;2022-08-30T08:37:56;17.70;93.00
71084;DHT22;58741;52.672;13.548;2022-08-30T08:40:22;17.70;93.10
71084;DHT22;58741;52.672;13.548;2022-08-30T08:45:28;17.70;92.60
71084;DHT22;58741;52.672;13.548;2022-08-30T08:48:02;17.70;92.50
71084;DHT22;58741;52.672;13.548;2022-08-30T08:50:29;17.70;92.70
71084;DHT22;58741;52.672;13.548;2022-08-30T08:53:11;17.70;92.60
71084;DHT22;58741;52.672;13.548;2022-08-30T08:55:57;17.70;92.70
71084;DHT22;58741;52.672;13.548;2022-08-30T08:58:25;17.70;92.70
71084;DHT22;58741;52.672;13.548;2022-08-30T09:00:52;17.70;92.80
71084;DHT22;58741;52.672;13.548;2022-08-30T09:03:20;17.80;92.80
71084;DHT22;58741;52.672;13.548;2022-08-30T09:05:47;17.80;92.90
71084;DHT22;58741;52.672;13.548;2022-08-30T09:08:16;17.80;92.80
71084;DHT22;58741;52.672;13.548;2022-08-30T09:10:59;17.80;92.90
71084;DHT22;58741;52.672;13.548;2022-08-30T09:13:25;17.90;93.20
71084;DHT22;58741;52.672;13.548;2022-08-30T09:15:53;18.00;92.90
71084;DHT22;58741;52.672;13.548;2022-08-30T09:18:19;18.00;92.90
71084;DHT22;58741;52.672;13.548;2022-08-30T09:20:47;18.10;92.30
71084;DHT22;58741;52.672;13.548;2022-08-30T09:25:53;18.20;92.50
71084;DHT22;58741;52.672;13.548;2022-08-30T09:28:33;18.30;92.10
71084;DHT22;58741;52.672;13.548;2022-08-30T09:31:20;18.30;92.00
71084;DHT22;58741;52.672;13.548;2022-08-30T09:33:59;18.40;91.80
71084;DHT22;58741;52.672;13.548;2022-08-30T09:36:43;18.50;91.90
71084;DHT22;58741;52.672;13.548;2022-08-30T09:39:16;18.60;91.70
71084;DHT22;58741;52.672;13.548;2022-08-30T09:41:44;18.60;91.50
71084;DHT22;58741;52.672;13.548;2022-08-30T09:44:18;18.70;90.90
71084;DHT22;58741;52.672;13.548;2022-08-30T09:46:50;18.70;90.30
71084;DHT22;58741;52.672;13.548;2022-08-30T09:49:34;18.80;90.80
71084;DHT22;58741;52.672;13.548;2022-08-30T09:52:13;18.80;88.70
71084;DHT22;58741;52.672;13.548;2022-08-30T09:55:00;18.80;89.50
71084;DHT22;58741;52.672;13.548;2022-08-30T09:57:43;18.90;89.40
71084;DHT22;58741;52.672;13.548;2022-08-30T10:00:16;19.00;89.60
71084;DHT22;58741;52.672;13.548;2022-08-30T10:06:05;19.10;88.30
71084;DHT22;58741;52.672;13.548;2022-08-30T10:11:23;19.20;89.70
71084;DHT22;58741;52.672;13.548;2022-08-30T10:22:25;19.50;87.70
71084;DHT22;58741;52.672;13.548;2022-08-30T10:27:49;19.70;87.30
71084;DHT22;58741;52.672;13.548;2022-08-30T10:30:16;19.70;87.20
71084;DHT22;58741;52.672;13.548;2022-08-30T10:32:54;19.80;86.60
71084;DHT22;58741;52.672;13.548;2022-08-30T10:35:27;19.90;83.90
71084;DHT22;58741;52.672;13.548;2022-08-30T10:38:05;19.90;83.90
71084;DHT22;58741;52.672;13.548;2022-08-30T10:40:38;20.00;84.60
71084;DHT22;58741;52.672;13.548;2022-08-30T10:45:56;20.20;85.20
71084;DHT22;58741;52.672;13.548;2022-08-30T10:48:28;20.30;85.40
71084;DHT22;58741;52.672;13.548;2022-08-30T10:50:58;20.40;84.80
71084;DHT22;58741;52.672;13.548;2022-08-30T10:53:54;20.50;85.10
71084;DHT22;58741;52.672;13.548;2022-08-30T10:56:23;20.70;84.20
71084;DHT22;58741;52.672;13.548;2022-08-30T10:58:50;20.70;83.50
71084;DHT22;58741;52.672;13.548;2022-08-30T11:10:45;21.00;81.70
71084;DHT22;58741;52.672;13.548;2022-08-30T11:13:15;21.10;83.00
71084;DHT22;58741;52.672;13.548;2022-08-30T11:16:04;21.20;81.30
71084;DHT22;58741;52.672;13.548;2022-08-30T11:18:44;21.20;81.80
71084;DHT22;58741;52.672;13.548;2022-08-30T11:24:09;21.30;82.10
71084;DHT22;58741;52.672;13.548;2022-08-30T11:29:31;21.30;78.30
71084;DHT22;58741;52.672;13.548;2022-08-30T11:31:59;21.30;77.50
71084;DHT22;58741;52.672;13.548;2022-08-30T11:42:40;21.60;77.80
71084;DHT22;58741;52.672;13.548;2022-08-30T11:47:59;21.60;71.60
71084;DHT22;58741;52.672;13.548;2022-08-30T11:50:31;21.60;77.10
71084;DHT22;58741;52.672;13.548;2022-08-30T11:53:32;21.60;78.20
71084;DHT22;58741;52.672;13.548;2022-08-30T11:56:12;21.70;78.40
71084;DHT22;58741;52.672;13.548;2022-08-30T11:58:56;21.80;78.40
71084;DHT22;58741;52.672;13.548;2022-08-30T12:07:00;21.90;73.20
71084;DHT22;58741;52.672;13.548;2022-08-30T12:17:02;21.90;76.80
71084;DHT22;58741;52.672;13.548;2022-08-30T12:19:55;21.90;76.30
71084;DHT22;58741;52.672;13.548;2022-08-30T12:22:21;21.90;76.70
71084;DHT22;58741;52.672;13.548;2022-08-30T12:24:50;21.90;76.50
71084;DHT22;58741;52.672;13.548;2022-08-30T12:30:03;21.90;77.30
71084;DHT22;58741;52.672;13.548;2022-08-30T12:32:30;21.80;77.70
71084;DHT22;58741;52.672;13.548;2022-08-30T12:35:01;21.80;77.40
71084;DHT22;58741;52.672;13.548;2022-08-30T12:37:31;21.70;77.10
71084;DHT22;58741;52.672;13.548;2022-08-30T12:40:08;21.70;77.60
71084;DHT22;58741;52.672;13.548;2022-08-30T12:42:37;21.70;77.80
71084;DHT22;58741;52.672;13.548;2022-08-30T12:45:10;21.60;77.40
71084;DHT22;58741;52.672;13.548;2022-08-30T12:50:06;21.50;76.70
71084;DHT22;58741;52.672;13.548;2022-08-30T12:52:38;21.50;77.00
71084;DHT22;58741;52.672;13.548;2022-08-30T12:55:17;21.50;77.20
71084;DHT22;58741;52.672;13.548;2022-08-30T13:00:35;21.50;78.50
71084;DHT22;58741;52.672;13.548;2022-08-30T13:03:27;21.50;77.80
71084;DHT22;58741;52.672;13.548;2022-08-30T13:05:54;21.40;77.40
71084;DHT22;58741;52.672;13.548;2022-08-30T13:08:33;21.50;76.60
71084;DHT22;58741;52.672;13.548;2022-08-30T13:11:03;21.50;77.00
71084;DHT22;58741;52.672;13.548;2022-08-30T13:13:51;21.40;77.20
71084;DHT22;58741;52.672;13.548;2022-08-30T13:18:44;21.40;76.10
71084;DHT22;58741;52.672;13.548;2022-08-30T13:21:20;21.50;77.60
71084;DHT22;58741;52.672;13.548;2022-08-30T13:23:48;21.50;78.00
71084;DHT22;58741;52.672;13.548;2022-08-30T13:26:14;21.60;78.30
71084;DHT22;58741;52.672;13.548;2022-08-30T13:28:55;21.70;78.30
71084;DHT22;58741;52.672;13.548;2022-08-30T13:31:22;21.80;77.40
71084;DHT22;58741;52.672;13.548;2022-08-30T13:33:48;21.80;76.50
71084;DHT22;58741;52.672;13.548;2022-08-30T13:36:21;21.80;75.70
71084;DHT22;58741;52.672;13.548;2022-08-30T13:38:49;21.80;75.70
71084;DHT22;58741;52.672;13.548;2022-08-30T13:41:15;21.80;76.00
71084;DHT22;58741;52.672;13.548;2022-08-30T13:43:41;21.70;76.20
71084;DHT22;58741;52.672;13.548;2022-08-30T13:46:07;21.70;76.40
71084;DHT22;58741;52.672;13.548;2022-08-30T13:48:33;21.60;76.20
71084;DHT22;58741;52.672;13.548;2022-08-30T13:50:59;21.50;76.10
71084;DHT22;58741;52.672;13.548;2022-08-30T13:53:24;21.50;76.70
71084;DHT22;58741;52.672;13.548;2022-08-30T13:55:50;21.40;76.90
71084;DHT22;58741;52.672;13.548;2022-08-30T13:58:16;21.40;76.90
71084;DHT22;58741;52.672;13.548;2022-08-30T14:00:42;21.40;77.10
71084;DHT22;58741;52.672;13.548;2022-08-30T14:03:10;21.30;77.20
71084;DHT22;58741;52.672;13.548;2022-08-30T14:05:37;21.30;76.40
71084;DHT22;58741;52.672;13.548;2022-08-30T14:08:05;21.30;76.40
71084;DHT22;58741;52.672;13.548;2022-08-30T14:10:31;21.30;76.90
71084;DHT22;58741;52.672;13.548;2022-08-30T14:12:58;21.20;77.50
71084;DHT22;58741;52.672;13.548;2022-08-30T14:15:24;21.20;77.10
71084;DHT22;58741;52.672;13.548;2022-08-30T14:17:49;21.20;77.50
71084;DHT22;58741;52.672;13.548;2022-08-30T14:20:16;21.20;77.60
71084;DHT22;58741;52.672;13.548;2022-08-30T14:22:41;21.20;77.60
71084;DHT22;58741;52.672;13.548;2022-08-30T14:25:07;21.20;77.70
71084;DHT22;58741;52.672;13.548;2022-08-30T14:27:33;21.30;77.00
71084;DHT22;58741;52.672;13.548;2022-08-30T14:29:58;21.20;77.40
71084;DHT22;58741;52.672;13.548;2022-08-30T14:32:24;21.30;77.90
71084;DHT22;58741;52.672;13.548;2022-08-30T14:34:50;21.30;77.60
71084;DHT22;58741;52.672;13.548;2022-08-30T14:37:16;21.30;76.90
71084;DHT22;58741;52.672;13.548;2022-08-30T14:39:42;21.30;77.00
71084;DHT22;58741;52.672;13.548;2022-08-30T14:42:08;21.30;77.20
71084;DHT22;58741;52.672;13.548;2022-08-30T14:44:34;21.30;76.40
71084;DHT22;58741;52.672;13.548;2022-08-30T14:46:59;21.30;76.80
71084;DHT22;58741;52.672;13.548;2022-08-30T14:49:25;21.30;77.70
71084;DHT22;58741;52.672;13.548;2022-08-30T14:51:51;21.30;77.40
71084;DHT22;58741;52.672;13.548;2022-08-30T14:54:22;21.30;77.10
71084;DHT22;58741;52.672;13.548;2022-08-30T14:56:48;21.30;76.60
71084;DHT22;58741;52.672;13.548;2022-08-30T14:59:14;21.30;75.90
71084;DHT22;58741;52.672;13.548;2022-08-30T15:01:40;21.30;76.60
71084;DHT22;58741;52.672;13.548;2022-08-30T15:04:07;21.30;76.90
71084;DHT22;58741;52.672;13.548;2022-08-30T15:06:34;21.30;75.10
71084;DHT22;58741;52.672;13.548;2022-08-30T15:09:01;21.30;76.00
71084;DHT22;58741;52.672;13.548;2022-08-30T15:11:26;21.30;76.40
71084;DHT22;58741;52.672;13.548;2022-08-30T15:13:52;21.30;76.10
71084;DHT22;58741;52.672;13.548;2022-08-30T15:16:19;21.30;75.30
71084;DHT22;58741;52.672;13.548;2022-08-30T15:18:45;21.30;75.60
71084;DHT22;58741;52.672;13.548;2022-08-30T15:21:11;21.30;75.50
71084;DHT22;58741;52.672;13.548;2022-08-30T15:23:37;21.30;76.00
71084;DHT22;58741;52.672;13.548;2022-08-30T15:26:03;21.40;75.50
71084;DHT22;58741;52.672;13.548;2022-08-30T15:28:29;21.50;76.20
71084;DHT22;58741;52.672;13.548;2022-08-30T15:30:54;21.60;76.20
71084;DHT22;58741;52.672;13.548;2022-08-30T15:33:21;21.60;74.90
71084;DHT22;58741;52.672;13.548;2022-08-30T15:35:47;21.70;74.70
71084;DHT22;58741;52.672;13.548;2022-08-30T15:38:13;21.70;74.20
71084;DHT22;58741;52.672;13.548;2022-08-30T15:40:39;21.70;74.40
71084;DHT22;58741;52.672;13.548;2022-08-30T15:43:04;21.80;74.50
71084;DHT22;58741;52.672;13.548;2022-08-30T15:45:30;21.80;73.20
71084;DHT22;58741;52.672;13.548;2022-08-30T15:47:59;21.80;73.10
71084;DHT22;58741;52.672;13.548;2022-08-30T15:50:26;21.80;73.30
71084;DHT22;58741;52.672;13.548;2022-08-30T15:52:51;21.80;72.30
71084;DHT22;58741;52.672;13.548;2022-08-30T15:55:17;21.70;72.40
71084;DHT22;58741;52.672;13.548;2022-08-30T15:57:43;21.70;72.70
71084;DHT22;58741;52.672;13.548;2022-08-30T16:00:09;21.70;72.80
71084;DHT22;58741;52.672;13.548;2022-08-30T16:02:35;21.60;72.80
71084;DHT22;58741;52.672;13.548;2022-08-30T16:05:02;21.70;73.00
71084;DHT22;58741;52.672;13.548;2022-08-30T16:07:28;21.70;72.80
71084;DHT22;58741;52.672;13.548;2022-08-30T16:09:53;21.80;71.90
71084;DHT22;58741;52.672;13.548;2022-08-30T16:12:19;21.90;72.40
71084;DHT22;58741;52.672;13.548;2022-08-30T16:14:44;22.00;70.50
71084;DHT22;58741;52.672;13.548;2022-08-30T16:17:09;22.00;69.40
71084;DHT22;58741;52.672;13.548;2022-08-30T16:19:36;22.00;69.30
71084;DHT22;58741;52.672;13.548;2022-08-30T16:22:01;22.00;69.70
71084;DHT22;58741;52.672;13.548;2022-08-30T16:24:27;21.90;70.10
71084;DHT22;58741;52.672;13.548;2022-08-30T16:26:53;21.80;69.70
71084;DHT22;58741;52.672;13.548;2022-08-30T16:29:19;21.70;69.80
71084;DHT22;58741;52.672;13.548;2022-08-30T16:31:44;21.60;69.70
71084;DHT22;58741;52.672;13.548;2022-08-30T16:34:12;21.50;70.10
71084;DHT22;58741;52.672;13.548;2022-08-30T16:36:39;21.40;71.10
71084;DHT22;58741;52.672;13.548;2022-08-30T16:39:07;21.30;70.80